Dallas, TX (75212)

6:03 PM CDT on August 16, 2017 (GMT -0500)
| | Change Station

Elev -9999 ft 0.00 °N, 0.00 °E | Updated 7 minutes ago

Mostly Cloudy
Mostly Cloudy
°F
Feels Like °F
N
Wind Variable Wind from North
Gusts mph

Today
High -- | Low -- °F
--% Chance of Precip.
Yesterday
High -- | Low -- °F
Precip. -- in
Pressure 29.83 in
Visibility 10.0 miles
Clouds Scattered Clouds 5500 ft
Mostly Cloudy 14000 ft
Mostly Cloudy 17000 ft
Mostly Cloudy 30000 ft
Dew Point Not available.
Humidity Not available.
Rainfall --
Snow Depth Not available.
6:51 AM 8:11 PM
Waning Crescent, 29% visible
METAR KDAL 162253Z 18010KT 10SM SCT055TCU BKN140 BKN170 BKN300 36/22 A2985 RMK AO2 SLP100 TCU NE-SE T03560222
Pressure 29.83 in
Visibility 10.0 miles
Clouds Scattered Clouds 5500 ft
Mostly Cloudy 14000 ft
Mostly Cloudy 17000 ft
Mostly Cloudy 30000 ft
Dew Point Not available.
Humidity Not available.
Rainfall --
Snow Depth Not available.
6:51 AM 8:11 PM
Waning Crescent, 29% visible
METAR KDAL 162253Z 18010KT 10SM SCT055TCU BKN140 BKN170 BKN300 36/22 A2985 RMK AO2 SLP100 TCU NE-SE T03560222

Get Severe Weather Alerts

Thanks for signing up!

Be on the lookout for a verification email in your inbox.

You'll start receiving the daily forecast at 6 AM.

×

10-Day Weather Forecast

Almanac

Astronomy

Aug. 16, 2017 Rise Set
Actual Time
Civil Twilight
Nautical Twilight
Astronomical Twilight
Moon
Length of Visible Light
Length of Day
Tomorrow will be .
, % of the Moon is Illuminated

Today's Extremes

State Highs State Lows

Community

WunderPhotos

Category 6

Welcome to Category 6. This is the collective home for Weather Underground's featured writeups by Dr. Jeff Masters (right), Bob Henson (left), Chris Burt, and other regular contributors.

Nearby

Air Quality

  Air Quality AQ Index Pollutant
Not available.

Snow Depth

Station Depth Elevation

Earthquake Activity

City Distance Mag. Time & Date
Minimum magnitude displayed is 2.5.

Coastal Water Temperatures

Place Temperature

Stations

Nearby Weather Stations

Station Location Temp. Windchill Dew Point Humidity Wind Precip. Elev Updated Type
                   

Watches & Warnings

There are currently no watches in effect.